Time;durP1;ratioP1;P1;durP2;ratioP2;P2;SDS_P1;SDS_P2;PMS_P1;PMS_P2;Temp;Humidity;BMP_temperature;BMP_pressure;BME280_temperature;BME280_humidity;BME280_pressure;Samples;Min_cycle;Max_cycle;Signal;HPM_P1;HPM_P2
2022/03/28 00:00:05;;;;;;;10.65;5.32;;;;;;;;;;6131217;23;20028;-83
2022/03/28 00:02:32;;;;;;;8.88;5.72;;;;;;;;;;6131276;23;20017;-87
2022/03/28 00:04:58;;;;;;;7.88;5.75;;;;;;;;;;6132055;23;20096;-82
2022/03/28 00:07:24;;;;;;;10.05;6.35;;;;;;;;;;6131270;23;20127;-82
2022/03/28 00:09:53;;;;;;;8.52;6.32;;;;;;;;;;6131855;23;20021;-86
2022/03/28 00:12:19;;;;;;;12.10;5.93;;;;;;;;;;6132005;23;20018;-82
2022/03/28 00:14:45;;;;;;;12.98;6.47;;;;;;;;;;6131554;23;20202;-81
2022/03/28 00:17:11;;;;;;;16.52;6.93;;;;;;;;;;6131714;23;20017;-84
2022/03/28 00:19:37;;;;;;;13.55;6.38;;;;;;;;;;6131036;23;20014;-82
2022/03/28 00:22:03;;;;;;;8.98;6.38;;;;;;;;;;6131756;23;20514;-83
2022/03/28 00:24:29;;;;;;;8.70;6.15;;;;;;;;;;6131418;23;20459;-83
2022/03/28 00:26:55;;;;;;;9.43;6.18;;;;;;;;;;6131791;23;20093;-82
2022/03/28 00:29:21;;;;;;;7.10;5.65;;;;;;;;;;6130785;23;20018;-83
2022/03/28 00:31:48;;;;;;;8.18;5.65;;;;;;;;;;6130727;23;20029;-80
2022/03/28 00:34:15;;;;;;;7.95;5.88;;;;;;;;;;6130131;23;20015;-83
2022/03/28 00:36:41;;;;;;;10.05;6.57;;;;;;;;;;6130748;23;20029;-81
2022/03/28 00:39:07;;;;;;;9.13;5.97;;;;;;;;;;6130720;23;20072;-81
2022/03/28 00:41:33;;;;;;;10.45;5.38;;;;;;;;;;6130899;23;20418;-82
2022/03/28 00:44:00;;;;;;;12.82;6.47;;;;;;;;;;6130845;23;20017;-84
2022/03/28 00:46:26;;;;;;;12.73;6.15;;;;;;;;;;6131431;23;20025;-85
2022/03/28 00:48:53;;;;;;;9.75;5.95;;;;;;;;;;6132428;23;20021;-82
2022/03/28 00:51:20;;;;;;;14.73;7.53;;;;;;;;;;6132271;23;20017;-81
2022/03/28 00:53:46;;;;;;;18.00;6.68;;;6.60;99.90;;;;;;6132288;23;20100;-85
2022/03/28 00:56:13;;;;;;;12.93;6.90;;;;;;;;;;6109061;23;20013;-85
2022/03/28 00:58:39;;;;;;;10.23;6.93;;;;;;;;;;6133650;23;20397;-86
2022/03/28 01:01:05;;;;;;;8.40;5.78;;;;;;;;;;6131754;23;20466;-85
2022/03/28 01:03:31;;;;;;;8.70;6.57;;;;;;;;;;6131342;23;20355;-86
2022/03/28 01:05:57;;;;;;;10.27;6.80;;;;;;;;;;6131984;23;20022;-85
2022/03/28 01:08:23;;;;;;;15.40;6.43;;;;;;;;;;6131939;23;20359;-84
2022/03/28 01:10:51;;;;;;;9.80;5.80;;;;;;;;;;6132101;23;20021;-84
2022/03/28 01:13:17;;;;;;;11.45;7.40;;;;;;;;;;6131676;23;20017;-83
2022/03/28 01:15:44;;;;;;;14.05;6.97;;;;;;;;;;6131988;23;20063;-82
2022/03/28 01:18:11;;;;;;;14.95;7.38;;;;;;;;;;6132219;23;20083;-86
2022/03/28 01:20:39;;;;;;;11.70;7.22;;;6.60;99.90;;;;;;6132443;23;20024;-80
2022/03/28 01:23:06;;;;;;;10.35;7.72;;;;;;;;;;6132310;23;20092;-82
2022/03/28 01:25:32;;;;;;;11.50;7.07;;;;;;;;;;6133629;23;20018;-81
2022/03/28 01:28:00;;;;;;;9.18;7.07;;;6.50;99.90;;;;;;6133050;23;20017;-83
2022/03/28 01:30:28;;;;;;;20.15;8.15;;;;;;;;;;6132241;23;20021;-83
2022/03/28 01:32:54;;;;;;;14.55;7.30;;;;;;;;;;6131513;23;20448;-86
2022/03/28 01:35:33;;;;;;;8.50;6.75;;;;;;;;;;6131989;23;20456;-82
2022/03/28 01:38:01;;;;;;;10.25;7.35;;;6.60;99.90;;;;;;6132308;23;20166;-82
2022/03/28 01:40:28;;;;;;;13.73;8.05;;;;;;;;;;6107491;23;20028;-82
2022/03/28 01:42:54;;;;;;;7.53;6.22;;;;;;;;;;6132520;23;20021;-81
2022/03/28 01:45:20;;;;;;;14.50;8.05;;;;;;;;;;6132654;23;20064;-81
2022/03/28 01:47:47;;;;;;;14.30;7.50;;;;;;;;;;6132711;23;20018;-81
2022/03/28 01:50:13;;;;;;;13.55;7.50;;;;;;;;;;6132708;23;20018;-81
2022/03/28 01:52:39;;;;;;;9.77;7.30;;;;;;;;;;6133103;23;20017;-82
2022/03/28 01:55:06;;;;;;;9.27;6.75;;;;;;;;;;6132211;23;20021;-84
2022/03/28 01:57:32;;;;;;;11.10;7.57;;;;;;;;;;6132070;23;20028;-81
2022/03/28 01:59:58;;;;;;;13.50;8.30;;;;;;;;;;6132160;23;20024;-82
2022/03/28 02:02:24;;;;;;;13.38;7.43;;;;;;;;;;6131486;23;20017;-81
2022/03/28 02:04:50;;;;;;;12.18;7.53;;;;;;;;;;6131559;23;20021;-81
2022/03/28 02:07:17;;;;;;;11.43;8.13;;;;;;;;;;6131700;23;20026;-81
2022/03/28 02:09:43;;;;;;;13.68;7.88;;;;;;;;;;6132421;23;20025;-82
2022/03/28 02:12:10;;;;;;;11.05;7.70;;;;;;;;;;6132164;23;20021;-80
2022/03/28 02:14:36;;;;;;;10.02;7.72;;;;;;;;;;6131449;23;20018;-80
2022/03/28 02:17:02;;;;;;;10.63;7.38;;;;;;;;;;6132189;23;20017;-80
2022/03/28 02:19:28;;;;;;;12.35;7.95;;;;;;;;;;6133052;23;20014;-83
2022/03/28 02:21:54;;;;;;;12.00;9.13;;;;;;;;;;6132070;23;20096;-81
2022/03/28 02:24:20;;;;;;;12.98;7.43;;;;;;;;;;6132634;23;20440;-80
2022/03/28 02:26:46;;;;;;;14.00;8.07;;;;;;;;;;6132332;23;20564;-83
2022/03/28 02:29:12;;;;;;;11.57;7.97;;;;;;;;;;6131985;23;20025;-83
2022/03/28 02:31:38;;;;;;;8.55;7.05;;;;;;;;;;6132558;23;20021;-80
2022/03/28 02:34:04;;;;;;;14.10;9.18;;;;;;;;;;6131904;23;20017;-81
2022/03/28 02:36:30;;;;;;;13.38;7.30;;;;;;;;;;6131629;23;20022;-83
2022/03/28 02:38:56;;;;;;;12.98;8.27;;;;;;;;;;6131956;23;20036;-81
2022/03/28 02:41:22;;;;;;;14.93;8.35;;;;;;;;;;6132395;23;20053;-82
2022/03/28 02:43:49;;;;;;;14.82;7.70;;;;;;;;;;6131928;23;20482;-80
2022/03/28 02:46:15;;;;;;;12.85;7.95;;;;;;;;;;6133105;23;20024;-83
2022/03/28 02:48:41;;;;;;;13.82;8.80;;;;;;;;;;6132133;23;20018;-81
2022/03/28 02:51:07;;;;;;;14.82;9.02;;;;;;;;;;6131450;23;20049;-83
2022/03/28 02:53:33;;;;;;;10.52;7.20;;;;;;;;;;6131534;23;20105;-81
2022/03/28 02:55:59;;;;;;;18.90;8.40;;;;;;;;;;6132145;23;20340;-82
2022/03/28 02:58:26;;;;;;;12.68;8.45;;;;;;;;;;6132159;23;20021;-82
2022/03/28 03:00:52;;;;;;;10.88;7.95;;;;;;;;;;6131795;23;20014;-80
2022/03/28 03:03:18;;;;;;;13.95;7.80;;;;;;;;;;6132073;23;20028;-83
2022/03/28 03:05:44;;;;;;;9.70;7.38;;;;;;;;;;6132874;23;20017;-82
2022/03/28 03:08:10;;;;;;;9.88;7.80;;;;;;;;;;6133836;23;20029;-84
2022/03/28 03:10:36;;;;;;;10.07;7.75;;;;;;;;;;6133331;23;20020;-84
2022/03/28 03:13:02;;;;;;;11.80;7.28;;;;;;;;;;6131645;23;20021;-81
2022/03/28 03:15:28;;;;;;;10.98;8.00;;;;;;;;;;6133070;23;20025;-85
2022/03/28 03:17:54;;;;;;;8.95;6.85;;;;;;;;;;6135122;23;20061;-81
2022/03/28 03:20:20;;;;;;;11.43;7.03;;;;;;;;;;6132929;23;20017;-83
2022/03/28 03:22:46;;;;;;;9.90;7.55;;;;;;;;;;6133129;23;20013;-84
2022/03/28 03:25:13;;;;;;;9.52;7.75;;;;;;;;;;6132454;23;20017;-83
2022/03/28 03:27:39;;;;;;;11.98;7.63;;;;;;;;;;6132417;23;20014;-84
2022/03/28 03:30:09;;;;;;;13.38;7.15;;;;;;;;;;6130814;23;20017;-85
2022/03/28 03:32:36;;;;;;;10.63;7.13;;;;;;;;;;6131391;23;20021;-85
2022/03/28 03:35:03;;;;;;;11.13;8.13;;;;;;;;;;6131868;23;20329;-86
2022/03/28 03:37:29;;;;;;;9.20;7.63;;;;;;;;;;6131267;23;20096;-85
2022/03/28 03:39:55;;;;;;;13.40;8.15;;;;;;;;;;6131320;23;20351;-81
2022/03/28 03:42:21;;;;;;;10.93;7.43;;;;;;;;;;6131593;23;20021;-80
2022/03/28 03:44:47;;;;;;;9.57;6.95;;;;;;;;;;6131067;23;20045;-82
2022/03/28 03:47:13;;;;;;;8.80;6.82;;;;;;;;;;6131461;23;20459;-80
2022/03/28 03:49:39;;;;;;;10.75;7.25;;;;;;;;;;6131026;23;20510;-81
2022/03/28 03:52:06;;;;;;;11.68;7.25;;;;;;;;;;6130846;23;20052;-81
2022/03/28 03:54:32;;;;;;;12.32;7.25;;;;;;;;;;6130771;23;20017;-80
2022/03/28 03:56:59;;;;;;;13.65;6.85;;;;;;;;;;6130632;23;20025;-81
2022/03/28 03:59:25;;;;;;;12.50;7.47;;;;;;;;;;6130301;23;20454;-80
2022/03/28 04:01:51;;;;;;;13.32;7.95;;;;;;;;;;6131027;23;20022;-80
2022/03/28 04:04:17;;;;;;;10.38;7.53;;;;;;;;;;6131500;23;20068;-81
2022/03/28 04:06:43;;;;;;;10.25;7.38;;;;;;;;;;6130962;23;20337;-82
2022/03/28 04:09:09;;;;;;;12.25;7.65;;;;;;;;;;6130705;23;20100;-82
2022/03/28 04:11:36;;;;;;;11.82;7.57;;;;;;;;;;6131429;23;20017;-83
2022/03/28 04:14:03;;;;;;;21.20;7.95;;;;;;;;;;6131600;23;20463;-83
2022/03/28 04:16:29;;;;;;;11.75;8.13;;;;;;;;;;6130938;23;20096;-81
2022/03/28 04:18:55;;;;;;;13.52;7.78;;;;;;;;;;6157808;23;20097;-80
2022/03/28 04:21:21;;;;;;;15.52;7.88;;;;;;;;;;6131534;23;20118;-82
2022/03/28 04:23:47;;;;;;;13.68;7.88;;;;;;;;;;6133017;23;20101;-81
2022/03/28 04:26:14;;;;;;;11.88;6.85;;;;;;;;;;6132688;23;20096;-82
2022/03/28 04:28:40;;;;;;;12.85;7.90;;;;;;;;;;6133200;23;20009;-83
2022/03/28 04:31:07;;;;;;;12.57;8.05;;;;;;;;;;6133742;23;20065;-81
2022/03/28 04:33:33;;;;;;;11.02;6.93;;;;;;;;;;6132878;23;20013;-81
2022/03/28 04:35:59;;;;;;;10.15;7.07;;;;;;;;;;6133472;23;20469;-83
2022/03/28 04:38:25;;;;;;;9.30;6.35;;;;;;;;;;6132662;23;20017;-84
2022/03/28 04:40:52;;;;;;;14.80;7.43;;;;;;;;;;6132863;23;20387;-84
2022/03/28 04:43:18;;;;;;;11.23;6.97;;;;;;;;;;6132219;23;20018;-80
2022/03/28 04:45:44;;;;;;;9.27;6.35;;;;;;;;;;6132886;23;20032;-81
2022/03/28 04:48:10;;;;;;;7.95;5.40;;;;;;;;;;6132899;23;20030;-83
2022/03/28 04:50:37;;;;;;;6.78;5.10;;;;;;;;;;6132900;23;20022;-82
2022/03/28 04:53:04;;;;;;;8.10;4.40;;;;;;;;;;6132601;23;20040;-80
2022/03/28 04:55:33;;;;;;;5.70;3.67;;;;;;;;;;6110844;23;20096;-85
2022/03/28 04:57:59;;;;;;;15.32;3.95;;;;;;;;;;6132605;23;20060;-82
2022/03/28 05:00:25;;;;;;;6.97;3.28;;;;;;;;;;6132885;23;20013;-82
2022/03/28 05:02:51;;;;;;;6.85;3.63;;;;;;;;;;6132631;23;20024;-82
2022/03/28 05:05:18;;;;;;;9.13;3.63;;;;;;;;;;6157539;23;20021;-81
2022/03/28 05:07:44;;;;;;;4.68;3.17;;;;;;;;;;6132761;23;20021;-83
2022/03/28 05:10:10;;;;;;;7.55;3.20;;;;;;;;;;6132781;23;20017;-81
2022/03/28 05:12:36;;;;;;;5.63;3.45;;;;;;;;;;6132835;23;20089;-80
2022/03/28 05:15:06;;;;;;;3.90;2.40;;;;;;;;;;6132802;23;20017;-83
2022/03/28 05:17:32;;;;;;;6.30;4.38;;;;;;;;;;6132397;23;20531;-80
2022/03/28 05:19:59;;;;;;;6.07;3.10;;;;;;;;;;6132892;23;20462;-82
2022/03/28 05:22:25;;;;;;;4.13;3.20;;;;;;;;;;6133637;23;20014;-81
2022/03/28 05:24:52;;;;;;;3.75;2.15;;;;;;;;;;6133585;23;20014;-81
2022/03/28 05:27:18;;;;;;;5.03;2.80;;;;;;;;;;6132712;23;20013;-82
2022/03/28 05:29:45;;;;;;;4.10;2.30;;;;;;;;;;6133598;23;20072;-80
2022/03/28 05:32:11;;;;;;;4.43;2.50;;;;;;;;;;6133783;23;20029;-81
2022/03/28 05:34:37;;;;;;;3.90;2.38;;;;;;;;;;6133391;23;20093;-80
2022/03/28 05:37:09;;;;;;;4.72;3.15;;;;;;;;;;6132332;23;20024;-83
2022/03/28 05:39:36;;;;;;;5.43;2.55;;;;;;;;;;6131876;23;20017;-83
2022/03/28 05:42:03;;;;;;;3.63;2.75;;;;;;;;;;6132503;23;20017;-83
2022/03/28 05:44:29;;;;;;;3.55;2.40;;;;;;;;;;6134152;23;20018;-81
2022/03/28 05:46:55;;;;;;;6.15;2.30;;;;;;;;;;6131864;23;20025;-81
2022/03/28 05:49:24;;;;;;;5.03;3.03;;;;;;;;;;6133407;23;20017;-86
2022/03/28 05:51:51;;;;;;;4.72;2.90;;;5.70;99.90;;;;;;6131985;23;20472;-84
2022/03/28 05:54:17;;;;;;;4.97;3.15;;;;;;;;;;6156692;23;20014;-85
2022/03/28 05:56:43;;;;;;;6.30;3.05;;;;;;;;;;6131584;23;20200;-85
2022/03/28 05:59:10;;;;;;;7.70;3.63;;;;;;;;;;6131262;23;20017;-84
2022/03/28 06:01:36;;;;;;;5.40;3.45;;;5.70;99.90;;;;;;6131606;23;20023;-81
2022/03/28 06:04:03;;;;;;;7.95;4.30;;;;;;;;;;6106975;23;20013;-81
2022/03/28 06:06:29;;;;;;;8.15;4.47;;;;;;;;;;6131714;23;20021;-81
2022/03/28 06:08:56;;;;;;;6.80;4.40;;;;;;;;;;6133010;23;20013;-82
2022/03/28 06:11:22;;;;;;;9.05;5.05;;;;;;;;;;6131536;23;20045;-82
2022/03/28 06:13:48;;;;;;;6.43;4.65;;;;;;;;;;6131579;23;20025;-81
2022/03/28 06:16:14;;;;;;;7.93;5.18;;;;;;;;;;6131691;23;20104;-80
2022/03/28 06:18:40;;;;;;;10.85;5.57;;;;;;;;;;6131002;23;20017;-81
2022/03/28 06:21:07;;;;;;;7.60;5.20;;;;;;;;;;6131813;23;20014;-80
2022/03/28 06:23:34;;;;;;;8.65;6.20;;;;;;;;;;6132053;23;20028;-81
2022/03/28 06:26:00;;;;;;;9.48;5.35;;;;;;;;;;6132077;23;20359;-81
2022/03/28 06:28:26;;;;;;;8.48;5.72;;;;;;;;;;6131937;23;20068;-82
2022/03/28 06:30:52;;;;;;;8.70;6.63;;;;;;;;;;6132035;23;20017;-80
2022/03/28 06:33:18;;;;;;;8.80;5.57;;;;;;;;;;6131610;23;20032;-81
2022/03/28 06:35:45;;;;;;;7.63;5.97;;;;;;;;;;6132518;23;20021;-81
2022/03/28 06:38:11;;;;;;;11.88;6.60;;;;;;;;;;6131080;23;20028;-80
2022/03/28 06:40:37;;;;;;;15.43;6.32;;;;;;;;;;6131596;23;20017;-82
2022/03/28 06:43:04;;;;;;;7.55;5.20;;;6.00;99.90;;;;;;6131991;23;20040;-81
2022/03/28 06:45:31;;;;;;;7.72;6.22;;;;;;;;;;6107063;23;20020;-81
2022/03/28 06:47:57;;;;;;;10.00;6.07;;;;;;;;;;6131995;23;20348;-82
2022/03/28 06:50:24;;;;;;;14.15;6.45;;;;;;;;;;6132090;23;20020;-80
2022/03/28 06:52:51;;;;;;;10.00;6.38;;;;;;;;;;6132393;23;20022;-82
2022/03/28 06:55:17;;;;;;;9.13;6.78;;;;;;;;;;6132045;23;20036;-83
2022/03/28 06:57:43;;;;;;;9.60;7.07;;;;;;;;;;6131594;23;20022;-81
2022/03/28 07:00:17;;;;;;;11.25;6.50;;;;;;;;;;6131214;23;20024;-81
2022/03/28 07:02:44;;;;;;;8.93;6.78;;;;;;;;;;6131064;23;20053;-83
2022/03/28 07:05:10;;;;;;;12.30;6.68;;;;;;;;;;6131473;23;20045;-84
2022/03/28 07:07:43;;;;;;;11.63;6.22;;;;;;;;;;6131651;23;20352;-83
2022/03/28 07:10:10;;;;;;;10.20;6.63;;;;;;;;;;6131366;23;20076;-83
2022/03/28 07:12:36;;;;;;;11.48;6.68;;;;;;;;;;6131495;23;20521;-83
2022/03/28 07:15:03;;;;;;;9.63;7.10;;;;;;;;;;6131413;23;20019;-85
2022/03/28 07:17:29;;;;;;;8.95;6.45;;;;;;;;;;6131321;23;20024;-83
2022/03/28 07:19:55;;;;;;;8.77;6.32;;;;;;;;;;6131558;23;20025;-82
2022/03/28 07:22:21;;;;;;;10.93;6.75;;;;;;;;;;6131773;23;20447;-82
2022/03/28 07:24:47;;;;;;;9.90;6.53;;;;;;;;;;6131054;23;20057;-83
2022/03/28 07:27:14;;;;;;;10.48;6.60;;;;;;;;;;6131533;23;20053;-81
2022/03/28 07:29:43;;;;;;;8.32;6.15;;;;;;;;;;6131671;23;20020;-84
2022/03/28 07:32:09;;;;;;;9.13;6.30;;;;;;;;;;6131386;23;20471;-84
2022/03/28 07:34:35;;;;;;;8.27;6.30;;;;;;;;;;6131704;23;20018;-81
2022/03/28 07:37:02;;;;;;;9.25;6.43;;;;;;;;;;6131268;23;20025;-81
2022/03/28 07:39:29;;;;;;;7.43;6.40;;;;;;;;;;6132010;23;20018;-80
2022/03/28 07:41:55;;;;;;;9.77;6.43;;;;;;;;;;6132365;23;20026;-81
2022/03/28 07:44:22;;;;;;;10.75;7.35;;;;;;;;;;6131615;23;20412;-80
2022/03/28 07:46:48;;;;;;;7.95;6.15;;;;;;;;;;6132211;23;20097;-81
2022/03/28 07:49:17;;;;;;;8.05;6.30;;;;;;;;;;6131912;23;20025;-81
2022/03/28 07:51:43;;;;;;;9.32;7.28;;;;;;;;;;6132464;23;20560;-81
2022/03/28 07:54:09;;;;;;;12.57;7.63;;;;;;;;;;6133035;23;20021;-80
2022/03/28 07:56:36;;;;;;;11.13;7.30;;;;;;;;;;6132130;23;20013;-81
2022/03/28 07:59:02;;;;;;;9.50;6.68;;;;;;;;;;6135031;23;20028;-82
2022/03/28 08:01:28;;;;;;;8.43;5.90;;;;;;;;;;6134122;23;20017;-86
2022/03/28 08:03:55;;;;;;;9.43;6.75;;;;;;;;;;6133387;23;20344;-85
2022/03/28 08:06:21;;;;;;;10.15;7.75;;;;;;;;;;6133573;23;20024;-82
2022/03/28 08:08:47;;;;;;;10.30;6.88;;;;;;;;;;6133487;23;20013;-81
2022/03/28 08:11:15;;;;;;;9.30;6.63;;;;;;;;;;6133425;23;20483;-84
2022/03/28 08:13:41;;;;;;;7.57;6.40;;;;;;;;;;6133042;23;20018;-83
2022/03/28 08:16:08;;;;;;;12.13;7.18;;;;;;;;;;6133257;23;20021;-81
2022/03/28 08:18:37;;;;;;;10.52;6.82;;;;;;;;;;6133731;23;20088;-85
2022/03/28 08:21:03;;;;;;;7.63;6.82;;;;;;;;;;6133597;23;20014;-82
2022/03/28 08:23:29;;;;;;;9.20;7.30;;;;;;;;;;6133570;23;20111;-85
2022/03/28 08:25:55;;;;;;;12.98;6.93;;;;;;;;;;6134108;23;20018;-83
2022/03/28 08:28:21;;;;;;;10.20;7.00;;;;;;;;;;6133980;23;20351;-82
2022/03/28 08:30:47;;;;;;;10.93;7.25;;;;;;;;;;6134018;23;20455;-82
2022/03/28 08:33:13;;;;;;;10.90;7.55;;;;;;;;;;6133906;23;20041;-85
2022/03/28 08:35:40;;;;;;;8.32;7.05;;;;;;;;;;6133803;23;20022;-82
2022/03/28 08:38:07;;;;;;;9.20;7.07;;;;;;;;;;6133793;23;20017;-82
2022/03/28 08:40:33;;;;;;;8.27;7.38;;;;;;;;;;6133933;23;20036;-83
2022/03/28 08:43:00;;;;;;;11.23;7.72;;;;;;;;;;6134566;23;20081;-81
2022/03/28 08:45:29;;;;;;;12.52;7.15;;;;;;;;;;6135170;23;20018;-82
2022/03/28 08:47:56;;;;;;;9.60;7.15;;;;;;;;;;6158931;23;20056;-82
2022/03/28 08:50:22;;;;;;;9.07;6.88;;;;;;;;;;6133884;23;20117;-82
2022/03/28 08:52:48;;;;;;;9.45;7.47;;;;;;;;;;6134268;23;20014;-81
2022/03/28 08:55:19;;;;;;;9.25;7.03;;;;;;;;;;6160897;23;20040;-82
2022/03/28 08:57:45;;;;;;;9.57;7.72;;;;;;;;;;6134060;23;20021;-81
2022/03/28 09:00:11;;;;;;;9.65;7.60;;;;;;;;;;6133954;23;20514;-81
2022/03/28 09:02:47;;;;;;;9.52;6.70;;;;;;;;;;6134529;23;20017;-81
2022/03/28 09:05:14;;;;;;;9.65;7.10;;;;;;;;;;6129137;23;20526;-81
2022/03/28 09:07:41;;;;;;;11.18;8.52;;;;;;;;;;6131608;23;20018;-81
2022/03/28 09:10:18;;;;;;;14.18;8.43;;;;;;;;;;6130002;23;20018;-81
2022/03/28 09:12:57;;;;;;;11.52;8.25;;;;;;;;;;6128586;23;20032;-84
2022/03/28 09:15:23;;;;;;;11.82;8.07;;;;;;;;;;6129382;23;20022;-80
2022/03/28 09:17:56;;;;;;;10.57;7.88;;;;;;;;;;6130115;23;20028;-81
2022/03/28 09:20:23;;;;;;;9.80;8.20;;;;;;;;;;6129128;23;20026;-82
2022/03/28 09:22:49;;;;;;;10.75;8.02;;;;;;;;;;6129542;23;20339;-81
2022/03/28 09:25:18;;;;;;;14.25;7.68;;;;;;;;;;6129146;23;20022;-81
2022/03/28 09:27:45;;;;;;;11.82;8.57;;;;;;;;;;6129466;23;20026;-81
2022/03/28 09:30:11;;;;;;;12.63;7.90;;;;;;;;;;6130223;23;20018;-82
2022/03/28 09:32:38;;;;;;;10.35;8.05;;;;;;;;;;6128906;23;20413;-82
2022/03/28 09:35:12;;;;;;;14.05;8.93;;;;;;;;;;6128775;23;20026;-82
2022/03/28 09:37:49;;;;;;;;;;;7.50;99.90;;;;;;6129024;23;20029;-82
2022/03/28 09:40:27;;;;;;;12.82;8.80;;;;;;;;;;6129531;23;19917;-83
2022/03/28 09:42:54;;;;;;;12.75;9.70;;;;;;;;;;6130567;23;20405;-83
2022/03/28 09:45:22;;;;;;;11.80;8.52;;;;;;;;;;6127556;23;20025;-82
2022/03/28 09:48:19;;;;;;;12.63;9.18;;;;;;;;;;6128004;23;20050;-81
2022/03/28 09:51:03;;;;;;;16.38;9.13;;;;;;;;;;6046048;23;20043;-82
2022/03/28 09:53:31;;;;;;;14.07;10.00;;;;;;;;;;6046569;23;20015;-83
2022/03/28 09:56:00;;;;;;;12.05;9.15;;;;;;;;;;6047196;23;20034;-85
2022/03/28 09:58:33;;;;;;;11.73;8.90;;;;;;;;;;6023803;23;20394;-85
2022/03/28 10:01:00;;;;;;;11.67;9.83;;;;;;;;;;6022891;23;20022;-85
2022/03/28 10:03:27;;;;;;;12.40;9.70;;;;;;;;;;6069911;23;20019;-82
2022/03/28 10:05:54;;;;;;;13.43;8.80;;;;;;;;;;6045754;23;20453;-84
2022/03/28 10:08:20;;;;;;;16.02;9.65;;;;;;;;;;6046740;23;20373;-82
2022/03/28 10:10:47;;;;;;;11.00;9.30;;;;;;;;;;6046374;23;20097;-88
2022/03/28 10:13:13;;;;;;;12.32;9.88;;;;;;;;;;6071979;23;20019;-88
2022/03/28 10:15:40;;;;;;;16.70;10.57;;;;;;;;;;6047152;23;20023;-83
2022/03/28 10:18:06;;;;;;;15.73;11.13;;;;;;;;;;6047100;23;20074;-84
2022/03/28 10:20:32;;;;;;;14.60;10.95;;;;;;;;;;6070921;23;20025;-83
2022/03/28 10:22:59;;;;;;;15.85;10.63;;;;;;;;;;6046207;23;20014;-86
2022/03/28 10:25:25;;;;;;;14.07;11.20;;;;;;;;;;6046781;23;20393;-84
2022/03/28 10:27:53;;;;;;;20.08;11.65;;;;;;;;;;6115363;23;20373;-85
2022/03/28 10:30:27;;;;;;;14.73;10.88;;;;;;;;;;6130955;23;20024;-85
2022/03/28 10:33:14;;;;;;;17.17;11.32;;;;;;;;;;6129044;23;20475;-85
2022/03/28 10:35:54;;;;;;;16.58;10.93;;;;;;;;;;6130247;23;20093;-84
2022/03/28 10:38:22;;;;;;;14.98;11.23;;;;;;;;;;6127990;23;20538;-85
2022/03/28 10:40:58;;;;;;;19.83;12.23;;;;;;;;;;6129565;23;20025;-86
2022/03/28 10:43:26;;;;;;;17.38;11.50;;;;;;;;;;6129509;23;20095;-87
2022/03/28 10:45:52;;;;;;;16.67;11.55;;;;;;;;;;6130396;23;20035;-85
2022/03/28 10:48:33;;;;;;;16.83;11.32;;;;;;;;;;6128630;23;20056;-85
2022/03/28 10:51:03;;;;;;;20.23;11.75;;;;;;;;;;6130118;23;20089;-84
2022/03/28 10:53:41;;;;;;;17.08;12.63;;;;;;;;;;6128311;23;20412;-86
2022/03/28 10:56:12;;;;;;;14.20;11.10;;;;;;;;;;6128133;23;20017;-87
2022/03/28 10:58:39;;;;;;;15.77;11.77;;;;;;;;;;6128679;23;20018;-83
2022/03/28 11:01:16;;;;;;;15.90;11.48;;;;;;;;;;6130342;23;20460;-86
2022/03/28 11:03:53;;;;;;;17.38;12.07;;;;;;;;;;6130157;23;20073;-88
2022/03/28 11:06:39;;;;;;;15.75;12.18;;;;;;;;;;6131314;23;20022;-86
2022/03/28 11:09:05;;;;;;;14.07;10.88;;;;;;;;;;6080205;23;20014;-89
2022/03/28 11:11:33;;;;;;;18.63;11.88;;;;;;;;;;6129384;23;20022;-89
2022/03/28 11:14:12;;;;;;;15.50;12.13;;;;;;;;;;6128233;23;20013;-90
2022/03/28 11:16:38;;;;;;;16.77;12.13;;;;;;;;;;6127902;23;20065;-91
2022/03/28 11:19:32;;;;;;;16.85;12.48;;;9.50;99.90;;;;;;6127645;23;20022;-90
2022/03/28 11:22:00;;;;;;;14.25;11.20;;;;;;;;;;6128270;23;20018;-84
2022/03/28 11:24:41;;;;;;;18.13;12.65;;;;;;;;;;6129336;23;20022;-89
2022/03/28 11:27:12;;;;;;;;;;;9.70;99.90;;;;;;6130342;23;20025;-89
2022/03/28 11:29:38;;;;;;;14.65;10.77;;;;;;;;;;6128290;23;19923;-85
2022/03/28 11:32:12;;;;;;;16.88;12.38;;;;;;;;;;6126956;23;20097;-90
2022/03/28 11:34:39;;;;;;;20.58;10.80;;;;;;;;;;6098680;23;20049;-88
2022/03/28 11:37:05;;;;;;;14.60;11.27;;;;;;;;;;6127757;23;20464;-89
2022/03/28 11:39:59;;;;;;;14.85;11.18;;;10.20;99.90;;;;;;6127790;23;20460;-91
2022/03/28 11:42:27;;;;;;;15.18;11.68;;;;;;;;;;6079439;23;20101;-90
2022/03/28 11:44:54;;;;;;;15.68;12.30;;;;;;;;;;6128202;23;20053;-87
2022/03/28 11:47:20;;;;;;;16.13;11.30;;;;;;;;;;6129079;23;20014;-90
2022/03/28 11:49:54;;;;;;;17.75;12.88;;;;;;;;;;6129739;23;20097;-90
2022/03/28 11:52:20;;;;;;;16.25;11.88;;;;;;;;;;6128651;23;20009;-88
2022/03/28 11:54:47;;;;;;;15.65;12.20;;;;;;;;;;6129768;23;20029;-87
2022/03/28 12:00:20;;;;;;;18.08;11.93;;;;;;;;;;6128891;23;20037;-86
2022/03/28 12:02:50;;;;;;;16.50;11.55;;;;;;;;;;6128895;23;20018;-89
2022/03/28 12:05:36;;;;;;;16.00;12.13;;;;;;;;;;6129483;23;20022;-93
2022/03/28 12:08:09;;;;;;;17.13;12.88;;;;;;;;;;6129336;23;20031;-91
2022/03/28 12:10:37;;;;;;;18.63;13.23;;;;;;;;;;6129538;23;20026;-90
2022/03/28 12:13:05;;;;;;;17.85;13.10;;;;;;;;;;6129607;23;20083;-92
2022/03/28 12:15:48;;;;;;;16.33;11.73;;;;;;;;;;6130282;23;20058;-92
2022/03/28 12:18:20;;;;;;;15.40;11.98;;;;;;;;;;6130436;23;20053;-92
2022/03/28 12:20:47;;;;;;;17.35;12.13;;;;;;;;;;6129766;23;20025;-83
2022/03/28 12:23:14;;;;;;;15.68;12.40;;;;;;;;;;6130223;23;20347;-92
2022/03/28 12:25:43;;;;;;;15.43;11.65;;;10.60;99.90;;;;;;6130786;23;20021;-83
2022/03/28 12:28:15;;;;;;;19.05;12.65;;;;;;;;;;6129721;23;20455;-84
2022/03/28 12:30:42;;;;;;;15.90;12.30;;;10.70;99.90;;;;;;6129434;23;20014;-91
2022/03/28 12:33:13;;;;;;;19.17;12.75;;;;;;;;;;6105898;23;20021;-86
2022/03/28 12:35:45;;;;;;;18.35;12.25;;;;;;;;;;6129611;23;20094;-91
2022/03/28 12:38:19;;;;;;;17.60;12.15;;;;;;;;;;6128975;23;20104;-92
2022/03/28 12:40:55;;;;;;;17.65;12.50;;;;;;;;;;6131736;23;20014;-90
2022/03/28 12:43:27;;;;;;;17.30;13.60;;;;;;;;;;6131321;23;20018;-88
2022/03/28 12:45:54;;;;;;;20.63;13.95;;;;;;;;;;6131699;23;20018;-89
2022/03/28 12:48:21;;;;;;;20.98;12.95;;;;;;;;;;6132184;23;20428;-90
2022/03/28 12:50:55;;;;;;;14.88;12.15;;;;;;;;;;6132755;23;20025;-85
2022/03/28 12:53:22;;;;;;;;;;;11.30;99.90;;;;;;6132151;23;20309;-84
2022/03/28 12:55:49;;;;;;;17.50;12.70;;;;;;;;;;6131962;23;20331;-89
2022/03/28 12:58:18;;;;;;;17.27;13.52;;;;;;;;;;6131991;23;20025;-89
2022/03/28 13:00:46;;;;;;;14.98;12.23;;;;;;;;;;6131972;23;20129;-90
2022/03/28 13:03:33;;;;;;;17.25;12.73;;;;;;;;;;6131185;23;20022;-89
2022/03/28 13:06:04;;;;;;;16.08;12.30;;;;;;;;;;6131851;23;20584;-87
2022/03/28 13:08:37;;;;;;;16.98;12.30;;;;;;;;;;6131954;23;20069;-87
2022/03/28 13:11:13;;;;;;;14.60;12.52;;;;;;;;;;6131432;23;20436;-85
2022/03/28 13:13:40;;;;;;;17.75;13.20;;;;;;;;;;6129585;23;20017;-86
2022/03/28 13:16:07;;;;;;;16.38;12.50;;;;;;;;;;6129806;23;20507;-84
2022/03/28 13:18:35;;;;;;;16.95;12.20;;;;;;;;;;6130346;23;20061;-85
2022/03/28 13:21:01;;;;;;;17.75;13.32;;;;;;;;;;6130480;23;20037;-84
2022/03/28 13:23:29;;;;;;;15.45;12.88;;;;;;;;;;6129860;23;20026;-84
2022/03/28 13:25:56;;;;;;;14.65;12.00;;;;;;;;;;6129492;23;20022;-84
2022/03/28 13:28:24;;;;;;;15.50;11.70;;;;;;;;;;6129716;23;20084;-87
2022/03/28 13:30:52;;;;;;;14.40;11.43;;;;;;;;;;6128884;23;20014;-87
2022/03/28 13:33:19;;;;;;;17.80;13.15;;;;;;;;;;6129954;23;20025;-86
2022/03/28 13:35:49;;;;;;;18.23;12.52;;;;;;;;;;6128896;23;20018;-83
2022/03/28 13:38:18;;;;;;;12.73;10.70;;;;;;;;;;6129379;23;20021;-83
2022/03/28 13:40:48;;;;;;;15.52;12.50;;;;;;;;;;6129962;23;20341;-85
2022/03/28 13:43:15;;;;;;;12.48;10.52;;;;;;;;;;6128870;23;20029;-86
2022/03/28 13:45:41;;;;;;;15.18;10.60;;;;;;;;;;6129843;23;20444;-84
2022/03/28 13:48:09;;;;;;;13.23;11.23;;;;;;;;;;6129280;23;20080;-83
2022/03/28 13:50:36;;;;;;;17.55;11.45;;;;;;;;;;6130239;23;20018;-83
2022/03/28 13:53:03;;;;;;;14.93;10.77;;;;;;;;;;6128742;23;20077;-84
2022/03/28 13:55:29;;;;;;;15.63;10.63;;;;;;;;;;6128959;23;20053;-87
2022/03/28 13:57:56;;;;;;;15.25;11.07;;;;;;;;;;6129795;23;20029;-89
2022/03/28 14:00:23;;;;;;;18.08;11.05;;;;;;;;;;6127669;23;20329;-84
2022/03/28 14:02:50;;;;;;;17.15;11.25;;;;;;;;;;6128336;23;20455;-86
2022/03/28 14:05:16;;;;;;;16.20;10.90;;;;;;;;;;6128116;23;20025;-83
2022/03/28 14:07:43;;;;;;;14.85;11.15;;;;;;;;;;6129039;23;20092;-84
2022/03/28 14:10:10;;;;;;;12.40;10.30;;;;;;;;;;6127700;23;20013;-83
2022/03/28 14:12:36;;;;;;;14.77;11.52;;;;;;;;;;6127862;23;20479;-83
2022/03/28 14:15:05;;;;;;;13.50;11.00;;;;;;;;;;6127968;23;20018;-83
2022/03/28 14:17:32;;;;;;;13.85;10.55;;;;;;;;;;6128848;23;20021;-86
2022/03/28 14:20:04;;;;;;;17.27;10.52;;;;;;;;;;6129086;23;20018;-88
2022/03/28 14:22:33;;;;;;;15.48;11.20;;;;;;;;;;6129935;23;20332;-82
2022/03/28 14:25:00;;;;;;;16.98;10.80;;;;;;;;;;6129789;23;20018;-86
2022/03/28 14:27:26;;;;;;;14.93;11.80;;;;;;;;;;6129493;23;20068;-85
2022/03/28 14:29:53;;;;;;;28.55;10.77;;;;;;;;;;6128540;23;20022;-84
2022/03/28 14:32:22;;;;;;;18.30;11.13;;;;;;;;;;6130321;23;20018;-83